Time;durP1;ratioP1;P1;durP2;ratioP2;P2;SDS_P1;SDS_P2;PMS_P1;PMS_P2;Temp;Humidity;BMP_temperature;BMP_pressure;BME280_temperature;BME280_humidity;BME280_pressure;Samples;Min_cycle;Max_cycle;Signal;HPM_P1;HPM_P2
2022/04/13 00:01:58;;;;;;;;;;;;;;;5.26;77.19;96684.47;6374583;27;19924;-64
2022/04/13 00:04:59;;;;;;;;;;;;;;;5.31;76.83;96686.88;6373624;27;19988;-65
2022/04/13 00:08:06;;;;;;;;;;;;;;;5.33;76.99;96685.91;6374786;27;19927;-64
2022/04/13 00:11:09;;;;;;;;;;;;;;;5.37;76.83;96687.44;6373881;27;19923;-64
2022/04/13 00:14:10;;;;;;;;;;;;;;;5.40;77.20;96697.72;6373465;27;19923;-65
2022/04/13 00:17:11;;;;;;;;;;;;;;;5.40;77.04;96691.66;6373856;27;20013;-64
2022/04/13 00:20:12;;;;;;;;;;;;;;;5.43;77.45;96696.72;6373834;27;19962;-64
2022/04/13 00:23:16;;;;;;;;;;;;;;;5.47;77.52;96693.06;6374314;27;19923;-65
2022/04/13 00:26:17;;;;;;;;;;;;;;;5.48;77.11;96681.72;6373866;27;19923;-65
2022/04/13 00:29:18;;;;;;;;;;;;;;;5.51;77.13;96684.16;6373777;27;19924;-65
2022/04/13 00:32:22;;;;;;;;;;;;;;;5.56;77.05;96681.34;6373249;27;19976;-65
2022/04/13 00:35:25;;;;;;;;;;;;;;;5.58;77.34;96684.75;6373931;27;19923;-65
2022/04/13 00:38:32;;;;;;;;;;;;;;;5.60;76.96;96688.09;6373849;27;19923;-64
2022/04/13 00:41:33;;;;;;;;;;;;;;;5.58;77.07;96687.34;6373132;27;19934;-64
2022/04/13 00:44:34;;;;;;;;;;;;;;;5.58;76.85;96692.56;6373959;27;20295;-64
2022/04/13 00:47:39;;;;;;;;;;;;;;;5.57;76.95;96683.88;6373106;27;19923;-64
2022/04/13 00:50:41;;;;;;;;;;;;;;;5.58;76.97;96684.75;6373049;27;19970;-64
2022/04/13 00:53:45;;;;;;;;;;;;;;;5.60;77.12;96683.75;6373547;27;19924;-65
2022/04/13 00:56:49;;;;;;;;;;;;;;;5.58;77.13;96684.75;6373585;27;19923;-63
2022/04/13 00:59:53;;;;;;;;;;;;;;;5.57;76.89;96683.03;6373562;27;19923;-63
2022/04/13 01:02:54;;;;;;;;;;;;;;;5.55;77.17;96687.50;6372589;27;19983;-64
2022/04/13 01:05:56;;;;;;;;;;;;;;;5.51;77.49;96693.78;6372257;27;20407;-64
2022/04/13 01:08:58;;;;;;;;;;;;;;;5.53;77.36;96689.31;6372370;27;19923;-63
2022/04/13 01:12:04;;;;;;;;;;;;;;;5.57;77.48;96683.03;6372836;27;19992;-64
2022/04/13 01:15:06;;;;;;;;;;;;;;;5.58;77.09;96687.34;6372350;27;19930;-64
2022/04/13 01:18:07;;;;;;;;;;;;;;;5.59;77.21;96691.63;6373084;27;19919;-64
2022/04/13 01:21:12;;;;;;;;;;;;;;;5.60;77.29;96693.31;6371900;27;19923;-64
2022/04/13 01:24:14;;;;;;;;;;;;;;;5.62;77.50;96691.50;6372244;27;19941;-64
2022/04/13 01:27:18;;;;;;;;;;;;;;;5.62;77.25;96696.72;6372887;27;19924;-64
2022/04/13 01:30:23;;;;;;;;;;;;;;;5.65;77.53;96699.16;6371672;27;20383;-64
2022/04/13 01:33:27;;;;;;;;;;;;;;;5.65;77.28;96688.72;6353664;27;20311;-64
2022/04/13 01:36:34;;;;;;;;;;;;;;;5.68;77.28;96700.78;6372677;27;19926;-64
2022/04/13 01:39:40;;;;;;;;;;;;;;;5.69;77.19;96698.13;6372499;27;19923;-65
2022/04/13 01:42:47;;;;;;;;;;;;;;;5.70;77.31;96694.59;6372447;27;20391;-65
2022/04/13 01:45:49;;;;;;;;;;;;;;;5.72;77.84;96692.75;6371033;27;19935;-65
2022/04/13 01:48:53;;;;;;;;;;;;;;;5.76;77.50;96704.72;6372287;27;19924;-64
2022/04/13 01:52:00;;;;;;;;;;;;;;;5.78;77.65;96702.88;6352931;27;19946;-64
2022/04/13 01:55:07;;;;;;;;;;;;;;;5.82;77.40;96701.81;6372281;27;19923;-64
2022/04/13 01:58:10;;;;;;;;;;;;;;;5.81;77.34;96701.91;6371858;27;20307;-65
2022/04/13 02:01:13;;;;;;;;;;;;;;;5.83;77.73;96700.91;6371528;27;19931;-65
2022/04/13 02:04:19;;;;;;;;;;;;;;;5.88;77.60;96703.28;6371119;27;19928;-65
2022/04/13 02:07:20;;;;;;;;;;;;;;;5.94;78.05;96697.78;6371229;27;19977;-65
2022/04/13 02:10:23;;;;;;;;;;;;;;;6.00;77.75;96696.63;6353819;27;20308;-65
2022/04/13 02:13:27;;;;;;;;;;;;;;;6.02;77.48;96694.81;6371390;27;19927;-65
2022/04/13 02:16:28;;;;;;;;;;;;;;;6.03;77.58;96699.13;6371837;27;19924;-65
2022/04/13 02:19:29;;;;;;;;;;;;;;;6.04;76.90;96701.63;6371866;28;19931;-65
2022/04/13 02:22:30;;;;;;;;;;;;;;;6.03;77.36;96701.72;6371708;28;20438;-64
2022/04/13 02:25:33;;;;;;;;;;;;;;;6.10;77.61;96708.31;6371708;28;19930;-65
2022/04/13 02:28:34;;;;;;;;;;;;;;;6.13;77.44;96707.34;6370514;28;19924;-65
2022/04/13 02:31:36;;;;;;;;;;;;;;;6.13;77.45;96705.56;6370877;28;19923;-64
2022/04/13 02:34:40;;;;;;;;;;;;;;;6.20;77.52;96703.47;6371463;28;20396;-65
2022/04/13 02:37:43;;;;;;;;;;;;;;;6.25;77.34;96712.78;6371380;28;19923;-65
2022/04/13 02:40:44;;;;;;;;;;;;;;;6.29;77.36;96703.03;6371480;28;19944;-65
2022/04/13 02:43:45;;;;;;;;;;;;;;;6.32;77.43;96709.88;6370972;28;20016;-64
2022/04/13 02:46:49;;;;;;;;;;;;;;;6.35;77.38;96712.34;6371275;28;19923;-65
2022/04/13 02:49:54;;;;;;;;;;;;;;;6.35;77.57;96714.94;6371113;28;19963;-65
2022/04/13 02:52:56;;;;;;;;;;;;;;;6.37;77.21;96715.69;6370894;28;19924;-64
2022/04/13 02:55:59;;;;;;;;;;;;;;;6.41;77.58;96719.84;6371365;28;19924;-65
2022/04/13 02:59:00;;;;;;;;;;;;;;;6.47;77.44;96727.38;6371278;28;19923;-65
2022/04/13 03:02:04;;;;;;;;;;;;;;;6.51;77.40;96721.06;6371116;28;20463;-64
2022/04/13 03:05:08;;;;;;;;;;;;;;;6.62;76.98;96726.59;6370404;28;19923;-64
2022/04/13 03:08:12;;;;;;;;;;;;;;;6.68;77.18;96728.03;6370957;28;19924;-63
2022/04/13 03:11:13;;;;;;;;;;;;;;;6.78;76.78;96725.81;6370793;28;19934;-64
2022/04/13 03:14:18;;;;;;;;;;;;;;;6.80;76.72;96716.97;6371066;28;19923;-64
2022/04/13 03:17:19;;;;;;;;;;;;;;;6.86;76.32;96721.88;6370805;28;19926;-65
2022/04/13 03:20:20;;;;;;;;;;;;;;;6.93;76.40;96714.53;6351939;28;19923;-64
2022/04/13 03:23:22;;;;;;;;;;;;;;;7.02;76.18;96724.53;6369796;27;19919;-64
2022/04/13 03:26:23;;;;;;;;;;;;;;;7.04;75.89;96727.88;6373707;27;19927;-64
2022/04/13 03:29:24;;;;;;;;;;;;;;;7.13;75.88;96732.66;6357012;27;19930;-64
2022/04/13 03:32:34;;;;;;;;;;;;;;;7.23;75.71;96729.53;6375229;27;19923;-64
2022/04/13 03:35:38;;;;;;;;;;;;;;;7.29;75.99;96731.81;6375301;27;19923;-63
2022/04/13 03:38:39;;;;;;;;;;;;;;;7.39;75.33;96722.56;6375154;27;20065;-64
2022/04/13 03:41:43;;;;;;;;;;;;;;;7.51;75.43;96734.13;6375106;27;19924;-64
2022/04/13 03:44:44;;;;;;;;;;;;;;;7.57;75.08;96741.63;6374551;27;19923;-63
2022/04/13 03:47:48;;;;;;;;;;;;;;;7.51;75.17;96748.06;6374457;27;20280;-63
2022/04/13 03:50:50;;;;;;;;;;;;;;;7.51;75.25;96753.28;6374667;27;19924;-63
2022/04/13 03:53:51;;;;;;;;;;;;;;;7.54;75.23;96747.88;6374443;27;19923;-64
2022/04/13 03:56:53;;;;;;;;;;;;;;;7.57;74.94;96750.34;6374958;27;19955;-63
2022/04/13 03:59:56;;;;;;;;;;;;;;;7.55;75.03;96746.94;6374847;27;19963;-64
2022/04/13 04:03:00;;;;;;;;;;;;;;;7.57;75.11;96747.72;6373894;27;19920;-64
2022/04/13 04:06:01;;;;;;;;;;;;;;;7.63;75.08;96747.38;6373966;27;19930;-63
2022/04/13 04:09:03;;;;;;;;;;;;;;;7.73;75.03;96746.84;6374496;27;20410;-64
2022/04/13 04:12:07;;;;;;;;;;;;;;;7.78;74.89;96750.91;6374547;27;19923;-64
2022/04/13 04:15:11;;;;;;;;;;;;;;;7.74;74.49;96751.19;6373925;27;19924;-64
2022/04/13 04:18:15;;;;;;;;;;;;;;;7.71;74.77;96753.97;6374127;27;20346;-63
2022/04/13 04:21:18;;;;;;;;;;;;;;;7.74;74.79;96744.16;6373428;27;19923;-64
2022/04/13 04:24:20;;;;;;;;;;;;;;;7.88;74.69;96752.09;6373011;27;19924;-63
2022/04/13 04:27:23;;;;;;;;;;;;;;;7.99;74.09;96748.88;6374242;27;19927;-65
2022/04/13 04:30:28;;;;;;;;;;;;;;;8.04;73.94;96752.09;6373750;27;20742;-65
2022/04/13 04:33:34;;;;;;;;;;;;;;;8.08;73.95;96758.84;6373917;27;19923;-64
2022/04/13 04:36:35;;;;;;;;;;;;;;;8.13;74.13;96755.13;6372783;27;19923;-64
2022/04/13 04:39:39;;;;;;;;;;;;;;;8.20;73.93;96756.44;6372860;27;19923;-64
2022/04/13 04:42:44;;;;;;;;;;;;;;;8.32;73.88;96755.72;6354729;27;19923;-64
2022/04/13 04:45:45;;;;;;;;;;;;;;;8.45;73.57;96751.50;6373757;27;19924;-64
2022/04/13 04:48:46;;;;;;;;;;;;;;;8.57;73.51;96754.34;6373522;27;19923;-62
2022/04/13 04:51:47;;;;;;;;;;;;;;;8.67;73.53;96752.88;6373517;27;19923;-64
2022/04/13 04:54:48;;;;;;;;;;;;;;;8.78;73.04;96763.59;6354020;27;19923;-64
2022/04/13 04:57:51;;;;;;;;;;;;;;;8.81;73.12;96763.41;6373269;27;20338;-64
2022/04/13 05:00:57;;;;;;;;;;;;;;;8.81;72.99;96763.41;6373422;27;20026;-64
2022/04/13 05:04:00;;;;;;;;;;;;;;;8.93;72.25;96767.06;6373198;27;19923;-64
2022/04/13 05:07:01;;;;;;;;;;;;;;;8.78;72.53;96758.34;6373119;27;19923;-65
2022/04/13 05:10:05;;;;;;;;;;;;;;;8.74;72.97;96759.44;6373217;27;19923;-65
2022/04/13 05:13:06;;;;;;;;;;;;;;;8.81;73.06;96763.41;6372861;27;19923;-64
2022/04/13 05:16:07;;;;;;;;;;;;;;;8.89;72.86;96765.53;6371642;27;19923;-64
2022/04/13 05:19:08;;;;;;;;;;;;;;;8.90;72.48;96772.50;6353954;27;20082;-64
2022/04/13 05:22:09;;;;;;;;;;;;;;;8.91;72.95;96772.41;6372495;27;19923;-64
2022/04/13 05:25:17;;;;;;;;;;;;;;;8.91;72.79;96774.19;6372416;27;19927;-63
2022/04/13 05:28:18;;;;;;;;;;;;;;;8.95;72.84;96780.94;6372314;27;19924;-64
2022/04/13 05:31:19;;;;;;;;;;;;;;;9.00;72.85;96784.13;6353050;27;19923;-64
2022/04/13 05:34:20;;;;;;;;;;;;;;;9.06;72.68;96772.41;6371583;27;19923;-65
2022/04/13 05:37:24;;;;;;;;;;;;;;;9.11;72.53;96781.69;6372519;27;19919;-64
2022/04/13 05:40:25;;;;;;;;;;;;;;;9.09;72.54;96773.09;6371905;27;20281;-64
2022/04/13 05:43:33;;;;;;;;;;;;;;;9.16;72.56;96770.94;6371609;27;19952;-64
2022/04/13 05:46:36;;;;;;;;;;;;;;;9.26;72.31;96774.69;6371404;27;19924;-65
2022/04/13 05:49:37;;;;;;;;;;;;;;;9.53;72.06;96772.13;6370621;27;19919;-64
2022/04/13 05:52:41;;;;;;;;;;;;;;;9.84;71.50;96778.94;6372308;27;19923;-64
2022/04/13 05:55:42;;;;;;;;;;;;;;;10.05;70.65;96775.91;6370863;27;19929;-65
2022/04/13 05:58:43;;;;;;;;;;;;;;;10.15;70.32;96774.34;6371210;27;20318;-64
2022/04/13 06:01:44;;;;;;;;;;;;;;;10.61;70.06;96781.88;6371133;27;19923;-64
2022/04/13 06:04:48;;;;;;;;;;;;;;;11.18;68.96;96784.16;6370965;27;19985;-65
2022/04/13 06:07:49;;;;;;;;;;;;;;;11.36;68.04;96781.22;6370805;27;19923;-64
2022/04/13 06:10:52;;;;;;;;;;;;;;;11.22;68.14;96785.63;6370535;27;20213;-65
2022/04/13 06:13:54;;;;;;;;;;;;;;;10.97;68.65;96777.72;6370913;27;19976;-65
2022/04/13 06:16:55;;;;;;;;;;;;;;;10.85;69.29;96773.31;6371367;27;19930;-64
2022/04/13 06:19:57;;;;;;;;;;;;;;;10.94;69.21;96772.66;6370572;27;20339;-64
2022/04/13 06:22:58;;;;;;;;;;;;;;;11.02;68.94;96780.88;6370275;28;19923;-64
2022/04/13 06:25:59;;;;;;;;;;;;;;;11.04;68.96;96778.13;6370360;28;19923;-64
2022/04/13 06:29:03;;;;;;;;;;;;;;;10.92;69.07;96785.09;6371528;28;19924;-65
2022/04/13 06:32:04;;;;;;;;;;;;;;;10.68;69.19;96783.16;6370344;28;20299;-65
2022/04/13 06:35:06;;;;;;;;;;;;;;;10.49;69.80;96782.69;6370640;28;19923;-64
2022/04/13 06:38:09;;;;;;;;;;;;;;;10.37;69.82;96784.34;6370590;28;19923;-65
2022/04/13 06:41:10;;;;;;;;;;;;;;;10.21;69.81;96787.09;6370275;28;19923;-64
2022/04/13 06:44:13;;;;;;;;;;;;;;;10.06;69.78;96785.47;6370234;28;19923;-65
2022/04/13 06:47:15;;;;;;;;;;;;;;;9.90;70.13;96786.41;6371604;28;19928;-65
2022/04/13 06:50:17;;;;;;;;;;;;;;;9.92;70.35;96782.88;6370141;28;19923;-65
2022/04/13 06:53:18;;;;;;;;;;;;;;;9.99;70.04;96789.41;6370392;28;19923;-64
2022/04/13 06:56:22;;;;;;;;;;;;;;;10.01;69.82;96785.75;6371229;28;19923;-64
2022/04/13 06:59:25;;;;;;;;;;;;;;;10.02;69.64;96782.19;6372962;27;19923;-64
2022/04/13 07:02:27;;;;;;;;;;;;;;;10.02;69.63;96783.94;6374856;27;19988;-64
2022/04/13 07:05:28;;;;;;;;;;;;;;;10.08;69.59;96778.31;6375095;27;19930;-65
2022/04/13 07:08:34;;;;;;;;;;;;;;;10.24;69.35;96783.41;6375816;27;19931;-64
2022/04/13 07:11:35;;;;;;;;;;;;;;;10.30;69.01;96778.66;6375132;27;20310;-64
2022/04/13 07:14:41;;;;;;;;;;;;;;;10.36;68.67;96776.53;6375532;27;19923;-65
2022/04/13 07:17:46;;;;;;;;;;;;;;;10.28;68.42;96779.69;6374988;27;19923;-64
2022/04/13 07:20:47;;;;;;;;;;;;;;;10.18;68.42;96784.66;6374919;27;20422;-64
2022/04/13 07:23:48;;;;;;;;;;;;;;;10.01;68.98;96784.91;6374806;27;19923;-64
2022/04/13 07:26:49;;;;;;;;;;;;;;;9.90;69.14;96786.41;6374738;27;19946;-65
2022/04/13 07:29:50;;;;;;;;;;;;;;;9.95;69.22;96782.66;6374591;27;19946;-64
2022/04/13 07:32:52;;;;;;;;;;;;;;;10.25;68.70;96788.59;6374552;27;19931;-65
2022/04/13 07:35:54;;;;;;;;;;;;;;;10.30;68.04;96783.91;6356803;27;20403;-65
2022/04/13 07:38:55;;;;;;;;;;;;;;;10.49;68.15;96787.94;6375488;27;19920;-66
2022/04/13 07:41:56;;;;;;;;;;;;;;;10.70;67.61;96783.91;6375277;27;19923;-64
2022/04/13 07:44:57;;;;;;;;;;;;;;;10.90;67.33;96781.69;6375116;27;19953;-64
2022/04/13 07:47:58;;;;;;;;;;;;;;;11.04;66.92;96783.41;6374151;27;20027;-65
2022/04/13 07:50:59;;;;;;;;;;;;;;;11.14;66.80;96793.22;6374119;27;19920;-65
2022/04/13 07:54:04;;;;;;;;;;;;;;;11.22;66.56;96788.25;6374300;27;19935;-64
2022/04/13 07:57:08;;;;;;;;;;;;;;;11.34;66.47;96793.63;6374873;27;19923;-65
2022/04/13 08:00:10;;;;;;;;;;;;;;;11.47;66.01;96802.38;6374644;27;20315;-64
2022/04/13 08:03:13;;;;;;;;;;;;;;;11.49;65.33;96800.47;6374664;27;19923;-65
2022/04/13 08:06:15;;;;;;;;;;;;;;;11.36;65.69;96799.66;6373919;27;19923;-65
2022/04/13 08:09:16;;;;;;;;;;;;;;;11.29;65.72;96799.22;6373330;27;20288;-64
2022/04/13 08:12:17;;;;;;;;;;;;;;;11.23;66.12;96805.75;6373355;27;19923;-64
2022/04/13 08:15:18;;;;;;;;;;;;;;;11.33;66.04;96803.34;6355454;27;20316;-65
2022/04/13 08:18:19;;;;;;;;;;;;;;;11.33;65.50;96810.41;6355763;27;19923;-64
2022/04/13 08:21:20;;;;;;;;;;;;;;;11.32;65.69;96820.06;6374260;27;20304;-65
2022/04/13 08:24:25;;;;;;;;;;;;;;;11.40;65.27;96814.28;6374335;27;20296;-64
2022/04/13 08:27:26;;;;;;;;;;;;;;;11.32;65.34;96816.59;6373354;27;19946;-65
2022/04/13 08:30:27;;;;;;;;;;;;;;;11.34;64.92;96815.53;6373409;27;19924;-65
2022/04/13 08:33:29;;;;;;;;;;;;;;;11.30;65.25;96815.88;6372787;27;20437;-65
2022/04/13 08:36:30;;;;;;;;;;;;;;;11.66;64.20;96820.38;6373871;27;19923;-65
2022/04/13 08:39:31;;;;;;;;;;;;;;;11.84;63.71;96820.88;6355274;27;19967;-65
2022/04/13 08:42:35;;;;;;;;;;;;;;;11.95;63.27;96822.81;6354974;27;19935;-64
2022/04/13 08:45:59;;;;;;;;;;;;;;;12.00;63.09;96821.53;6373700;27;19923;-65
2022/04/13 08:49:04;;;;;;;;;;;;;;;12.59;62.61;96818.94;6372350;27;19928;-65
2022/04/13 08:52:07;;;;;;;;;;;;;;;13.27;60.83;96821.84;6372654;27;19923;-65
2022/04/13 08:55:11;;;;;;;;;;;;;;;13.80;59.76;96827.41;6372524;27;19923;-64
2022/04/13 08:58:29;;;;;;;;;;;;;;;14.03;59.07;96835.34;6372512;27;19945;-65
2022/04/13 09:01:41;;;;;;;;;;;;;;;13.91;59.43;96835.34;6373325;27;19954;-65
2022/04/13 09:04:44;;;;;;;;;;;;;;;13.48;59.41;96835.22;6372004;27;19923;-65
2022/04/13 09:07:49;;;;;;;;;;;;;;;13.12;60.87;96826.47;6373079;27;19930;-65
2022/04/13 09:10:53;;;;;;;;;;;;;;;12.93;61.48;96837.56;6371802;27;19946;-65
2022/04/13 09:13:58;;;;;;;;;;;;;;;12.83;61.81;96830.47;6371686;27;20311;-64
2022/04/13 09:16:59;;;;;;;;;;;;;;;12.86;62.02;96831.06;6372143;27;19923;-63
2022/04/13 09:20:01;;;;;;;;;;;;;;;12.85;61.82;96837.31;6371651;27;19960;-65
2022/04/13 09:23:04;;;;;;;;;;;;;;;12.70;61.95;96835.81;6371651;27;19930;-64
2022/04/13 09:26:08;;;;;;;;;;;;;;;12.65;62.20;96844.03;6372131;27;19919;-65
2022/04/13 09:29:12;;;;;;;;;;;;;;;12.96;61.40;96849.69;6371275;27;19923;-64
2022/04/13 09:32:13;;;;;;;;;;;;;;;13.06;61.01;96847.22;6353137;27;20089;-65
2022/04/13 09:35:19;;;;;;;;;;;;;;;13.26;60.70;96838.66;6372347;27;20017;-65
2022/04/13 09:38:21;;;;;;;;;;;;;;;13.58;60.33;96848.56;6353396;27;20301;-64
2022/04/13 09:41:32;;;;;;;;;;;;;;;13.82;59.29;96846.66;6371530;27;20422;-64
2022/04/13 09:44:40;;;;;;;;;;;;;;;13.83;59.36;96848.31;6372291;27;19923;-65
2022/04/13 09:47:45;;;;;;;;;;;;;;;13.72;59.68;96850.97;6371033;27;19974;-65
2022/04/13 09:50:47;;;;;;;;;;;;;;;13.73;59.81;96857.09;6370783;27;19923;-64
2022/04/13 09:53:50;;;;;;;;;;;;;;;13.86;59.81;96853.38;6371646;27;19923;-65
2022/04/13 09:56:52;;;;;;;;;;;;;;;14.07;59.30;96847.38;6371230;27;19946;-64
2022/04/13 09:59:56;;;;;;;;;;;;;;;14.33;58.52;96854.06;6372069;27;20359;-64
2022/04/13 10:03:10;;;;;;;;;;;;;;;14.37;58.00;96850.19;6371067;27;19931;-65
2022/04/13 10:06:25;;;;;;;;;;;;;;;14.36;58.20;96853.81;6370785;27;19927;-64
2022/04/13 10:09:31;;;;;;;;;;;;;;;14.30;58.81;96851.66;6371118;27;19958;-66
2022/04/13 10:12:47;;;;;;;;;;;;;;;14.17;58.65;96852.78;6371617;27;19924;-66
2022/04/13 10:15:57;;;;;;;;;;;;;;;13.96;58.96;96848.22;6370608;27;19923;-65
2022/04/13 10:19:01;;;;;;;;;;;;;;;13.83;59.51;96840.41;6370750;27;19965;-64
2022/04/13 10:22:05;;;;;;;;;;;;;;;13.99;59.26;96841.84;6371921;28;20396;-65
2022/04/13 10:25:20;;;;;;;;;;;;;;;14.12;59.01;96831.94;6353753;28;19923;-65
2022/04/13 10:28:21;;;;;;;;;;;;;;;14.37;58.62;96842.25;6371499;28;19929;-64
2022/04/13 10:31:22;;;;;;;;;;;;;;;14.69;57.94;96833.56;6371054;28;19924;-64
2022/04/13 10:34:34;;;;;;;;;;;;;;;14.71;57.66;96838.72;6372972;27;19923;-64
2022/04/13 10:37:37;;;;;;;;;;;;;;;14.57;57.96;96843.31;6376871;27;19927;-65
2022/04/13 10:40:40;;;;;;;;;;;;;;;14.32;58.30;96841.81;6358266;27;20396;-66
2022/04/13 10:43:44;;;;;;;;;;;;;;;14.24;58.95;96833.63;6358534;27;20003;-64
2022/04/13 10:46:48;;;;;;;;;;;;;;;14.25;58.89;96837.13;6376514;27;20421;-65
2022/04/13 10:49:54;;;;;;;;;;;;;;;14.22;59.11;96838.22;6375795;27;19923;-65
2022/04/13 10:52:57;;;;;;;;;;;;;;;14.12;59.04;96834.59;6375581;27;19930;-64
2022/04/13 10:56:02;;;;;;;;;;;;;;;14.20;59.06;96834.84;6376228;27;19923;-65
2022/04/13 10:59:18;;;;;;;;;;;;;;;14.37;58.91;96836.97;6376657;27;19923;-65
2022/04/13 11:02:44;;;;;;;;;;;;;;;14.52;58.38;96834.94;6376288;27;20025;-64
2022/04/13 11:05:45;;;;;;;;;;;;;;;14.59;58.10;96835.25;6375367;27;19927;-65
2022/04/13 11:08:57;;;;;;;;;;;;;;;14.65;58.24;96832.09;6375192;27;19930;-65
2022/04/13 11:11:59;;;;;;;;;;;;;;;15.01;57.76;96822.09;6374269;27;19946;-65
2022/04/13 11:15:03;;;;;;;;;;;;;;;15.41;56.85;96826.69;6374955;27;20016;-65
2022/04/13 11:18:08;;;;;;;;;;;;;;;15.51;56.42;96827.56;6374795;27;19977;-65
2022/04/13 11:21:10;;;;;;;;;;;;;;;15.45;56.47;96830.75;6374731;27;19924;-64
2022/04/13 11:24:30;;;;;;;;;;;;;;;15.27;56.90;96830.50;6375083;27;19919;-67
2022/04/13 11:27:49;;;;;;;;;;;;;;;15.15;57.29;96820.94;6375000;27;19952;-67
2022/04/13 11:30:59;;;;;;;;;;;;;;;15.00;57.54;96828.34;6374667;27;19923;-65
2022/04/13 11:34:05;;;;;;;;;;;;;;;14.88;57.94;96834.66;6374430;27;19930;-65
2022/04/13 11:37:09;;;;;;;;;;;;;;;14.69;58.06;96830.91;6375356;27;19930;-66
2022/04/13 11:40:18;;;;;;;;;;;;;;;14.44;58.47;96839.13;6375085;27;19927;-64
2022/04/13 11:43:21;;;;;;;;;;;;;;;14.24;59.05;96844.22;6374906;27;20037;-67
2022/04/13 11:46:33;;;;;;;;;;;;;;;14.14;59.38;96835.31;6373234;27;19924;-65
2022/04/13 11:49:53;;;;;;;;;;;;;;;14.12;59.43;96837.25;6374147;27;20403;-65
2022/04/13 11:53:02;;;;;;;;;;;;;;;14.22;59.23;96838.22;6373997;27;19927;-65
2022/04/13 11:56:06;;;;;;;;;;;;;;;14.36;58.95;96834.44;6373338;27;20304;-65
2022/04/13 11:59:15;;;;;;;;;;;;;;;14.47;58.62;96833.59;6374800;27;19923;-65
2022/04/13 12:02:16;;;;;;;;;;;;;;;14.62;58.34;96829.72;6373748;27;19923;-64
2022/04/13 12:05:22;;;;;;;;;;;;;;;14.61;58.14;96838.63;6347732;28;20332;-65
2022/04/13 12:08:27;;;;;;;;;;;;;;;14.63;58.21;96841.97;6348758;28;20315;-65
2022/04/13 12:11:37;;;;;;;;;;;;;;;14.76;58.06;96837.38;6348399;27;19924;-65
2022/04/13 12:14:40;;;;;;;;;;;;;;;15.23;57.58;96831.75;6348268;28;19923;-65
2022/04/13 12:17:44;;;;;;;;;;;;;;;16.21;55.37;96825.09;6347941;28;19924;-65
2022/04/13 12:20:48;;;;;;;;;;;;;;;17.19;52.90;96832.22;6348748;28;19924;-65
2022/04/13 12:23:53;;;;;;;;;;;;;;;17.82;51.57;96829.84;6348290;28;19969;-65
2022/04/13 12:26:54;;;;;;;;;;;;;;;18.24;50.60;96829.41;6348259;28;19924;-65
2022/04/13 12:30:11;;;;;;;;;;;;;;;18.42;50.20;96820.59;6348234;28;20027;-66
2022/04/13 12:33:21;;;;;;;;;;;;;;;18.43;49.82;96816.94;6348166;28;20291;-65
2022/04/13 12:36:25;;;;;;;;;;;;;;;18.34;50.43;96816.88;6348417;28;19949;-65
2022/04/13 12:39:32;;;;;;;;;;;;;;;18.41;50.44;96811.78;6348235;28;20396;-66
2022/04/13 12:42:34;;;;;;;;;;;;;;;18.52;49.14;96800.06;6347313;28;19950;-66
2022/04/13 12:45:35;;;;;;;;;;;;;;;18.13;49.23;96801.13;6347560;28;19924;-65
2022/04/13 12:48:39;;;;;;;;;;;;;;;17.65;50.88;96817.28;6347878;28;19923;-65
2022/04/13 12:51:42;;;;;;;;;;;;;;;17.53;51.32;96813.13;6348018;27;19924;-65
2022/04/13 12:54:43;;;;;;;;;;;;;;;17.41;50.88;96810.63;6347238;28;19928;-64
2022/04/13 12:57:44;;;;;;;;;;;;;;;16.87;52.02;96809.44;6346280;28;20281;-65
2022/04/13 13:00:48;;;;;;;;;;;;;;;16.55;52.66;96815.78;6347282;28;19968;-65
2022/04/13 13:03:52;;;;;;;;;;;;;;;16.30;52.99;96808.34;6349827;27;19923;-65
2022/04/13 13:06:58;;;;;;;;;;;;;;;16.09;53.69;96813.75;6355174;27;19923;-64
2022/04/13 13:10:02;;;;;;;;;;;;;;;15.92;53.96;96821.38;6372739;27;19976;-65
2022/04/13 13:13:13;;;;;;;;;;;;;;;15.64;54.38;96817.59;6372099;27;19930;-65
2022/04/13 13:16:30;;;;;;;;;;;;;;;15.28;55.05;96810.97;6372979;27;20304;-65
2022/04/13 13:19:33;;;;;;;;;;;;;;;14.72;55.87;96814.75;6372977;27;19928;-65
2022/04/13 13:22:38;;;;;;;;;;;;;;;14.27;57.10;96804.28;6353075;27;19928;-65
2022/04/13 13:25:42;;;;;;;;;;;;;;;13.78;58.13;96807.34;6354217;27;19923;-66
2022/04/13 13:28:48;;;;;;;;;;;;;;;13.27;59.11;96803.34;6372551;27;19923;-65
2022/04/13 13:31:50;;;;;;;;;;;;;;;12.80;60.42;96808.59;6372120;27;20411;-65
2022/04/13 13:34:55;;;;;;;;;;;;;;;12.73;61.15;96798.63;6353519;27;20415;-66
2022/04/13 13:38:07;;;;;;;;;;;;;;;12.55;61.50;96806.94;6370822;27;19930;-64
2022/04/13 13:41:10;;;;;;;;;;;;;;;12.22;62.02;96799.69;6370985;27;19929;-65
2022/04/13 13:44:22;;;;;;;;;;;;;;;11.98;62.70;96797.03;6371794;27;19923;-65
2022/04/13 13:47:42;;;;;;;;;;;;;;;11.79;63.24;96805.38;6372139;27;20308;-65
2022/04/13 13:50:44;;;;;;;;;;;;;;;11.78;63.54;96805.50;6371479;27;19923;-67
2022/04/13 13:53:49;;;;;;;;;;;;;;;11.72;64.10;96805.91;6370950;27;19923;-65
2022/04/13 13:56:50;;;;;;;;;;;;;;;11.44;64.64;96813.13;6371783;27;19924;-66
2022/04/13 13:59:52;;;;;;;;;;;;;;;11.20;65.30;96800.69;6353601;27;19930;-66
2022/04/13 14:02:55;;;;;;;;;;;;;;;11.08;65.97;96805.97;6371906;27;19923;-64
2022/04/13 14:05:57;;;;;;;;;;;;;;;11.01;65.99;96810.78;6370607;27;19931;-65
2022/04/13 14:09:00;;;;;;;;;;;;;;;10.77;66.70;96800.97;6370713;27;19927;-65
2022/04/13 14:12:05;;;;;;;;;;;;;;;10.65;67.48;96809.69;6371587;27;19923;-65
2022/04/13 14:15:09;;;;;;;;;;;;;;;10.42;68.05;96813.00;6353059;27;19924;-66
2022/04/13 14:18:10;;;;;;;;;;;;;;;10.19;68.75;96815.28;6371266;27;19923;-65
2022/04/13 14:21:17;;;;;;;;;;;;;;;9.88;69.55;96814.59;6371520;27;19923;-65
2022/04/13 14:24:19;;;;;;;;;;;;;;;9.66;70.14;96819.50;6371503;28;20081;-65
2022/04/13 14:27:22;;;;;;;;;;;;;;;9.48;70.53;96813.59;6371463;28;19923;-65
2022/04/13 14:30:26;;;;;;;;;;;;;;;9.39;71.01;96815.00;6353565;28;19923;-65
2022/04/13 14:33:30;;;;;;;;;;;;;;;9.24;71.42;96807.22;6371226;28;19946;-65
2022/04/13 14:36:31;;;;;;;;;;;;;;;9.11;71.88;96812.34;6371153;28;20479;-65
2022/04/13 14:39:34;;;;;;;;;;;;;;;8.97;72.02;96811.41;6371182;28;19923;-65
2022/04/13 14:42:40;;;;;;;;;;;;;;;8.89;72.14;96812.78;6371347;28;20037;-65
2022/04/13 14:45:45;;;;;;;;;;;;;;;8.87;72.86;96806.81;6371524;28;19931;-65
2022/04/13 14:48:49;;;;;;;;;;;;;;;8.77;73.18;96803.84;6371001;28;19923;-65
2022/04/13 14:51:51;;;;;;;;;;;;;;;8.70;73.61;96802.53;6371349;28;19924;-66
2022/04/13 14:54:54;;;;;;;;;;;;;;;8.55;73.88;96804.28;6371411;28;20358;-65
2022/04/13 14:57:59;;;;;;;;;;;;;;;8.43;74.19;96799.72;6371315;28;19923;-65
2022/04/13 15:01:03;;;;;;;;;;;;;;;8.32;74.88;96810.78;6371190;28;20454;-65
2022/04/13 15:04:06;;;;;;;;;;;;;;;8.16;75.07;96808.22;6371089;28;19923;-65
2022/04/13 15:07:07;;;;;;;;;;;;;;;8.08;75.64;96811.25;6370935;28;19930;-64
2022/04/13 15:10:14;;;;;;;;;;;;;;;8.06;75.68;96807.03;6371500;28;19923;-66
2022/04/13 15:13:17;;;;;;;;;;;;;;;7.89;75.47;96810.56;6371001;28;19930;-66
2022/04/13 15:16:18;;;;;;;;;;;;;;;7.75;75.70;96803.47;6369963;28;19930;-64
2022/04/13 15:19:21;;;;;;;;;;;;;;;7.71;76.18;96806.34;6371539;27;19920;-66
2022/04/13 15:22:22;;;;;;;;;;;;;;;7.73;76.39;96804.47;6374617;27;19923;-65
2022/04/13 15:25:23;;;;;;;;;;;;;;;7.59;76.38;96797.41;6375737;27;20015;-65
2022/04/13 15:28:26;;;;;;;;;;;;;;;7.61;76.60;96799.00;6375527;27;20292;-65
2022/04/13 15:31:30;;;;;;;;;;;;;;;7.62;76.63;96803.31;6375436;27;20312;-67
2022/04/13 15:34:37;;;;;;;;;;;;;;;7.65;76.46;96808.38;6375477;27;20307;-66
2022/04/13 15:37:41;;;;;;;;;;;;;;;7.64;76.35;96796.22;6375772;27;19928;-66
2022/04/13 15:40:47;;;;;;;;;;;;;;;7.58;76.38;96795.69;6375372;27;19923;-65
2022/04/13 15:43:48;;;;;;;;;;;;;;;7.57;76.71;96800.09;6356005;27;19931;-65
2022/04/13 15:46:49;;;;;;;;;;;;;;;7.61;76.28;96800.75;6373975;27;20312;-65
2022/04/13 15:49:54;;;;;;;;;;;;;;;7.74;76.54;96795.72;6373726;27;19923;-65
2022/04/13 15:52:55;;;;;;;;;;;;;;;7.83;76.19;96805.69;6374422;27;20391;-66
2022/04/13 15:55:56;;;;;;;;;;;;;;;7.91;75.88;96806.09;6374670;27;19930;-65
2022/04/13 15:58:57;;;;;;;;;;;;;;;7.87;75.79;96812.47;6373990;27;19931;-64
2022/04/13 16:02:00;;;;;;;;;;;;;;;7.83;75.79;96816.16;6374921;27;19923;-65
2022/04/13 16:05:04;;;;;;;;;;;;;;;7.85;75.86;96816.94;6374166;27;19927;-65